Time;durP1;ratioP1;P1;durP2;ratioP2;P2;SDS_P1;SDS_P2;PMS_P1;PMS_P2;Temp;Humidity;BMP_temperature;BMP_pressure;BME280_temperature;BME280_humidity;BME280_pressure;Samples;Min_cycle;Max_cycle;Signal;HPM_P1;HPM_P2
2021/05/25 00:01:05;;;;;;;4.40;1.07;;;13.20;99.90;;;;;;4901597;29;20485;-87
2021/05/25 00:03:31;;;;;;;3.97;1.30;;;13.30;99.90;;;;;;4901792;29;20185;-88
2021/05/25 00:05:56;;;;;;;2.10;0.83;;;13.20;99.90;;;;;;4901709;29;20182;-89
2021/05/25 00:08:22;;;;;;;2.20;0.97;;;13.20;99.90;;;;;;4918664;29;20173;-90
2021/05/25 00:10:48;;;;;;;2.93;1.27;;;13.20;99.90;;;;;;4901907;29;20668;-87
2021/05/25 00:13:13;;;;;;;2.73;1.27;;;13.20;99.90;;;;;;4901635;29;20271;-88
2021/05/25 00:15:40;;;;;;;1.30;0.80;;;13.10;99.90;;;;;;4901610;29;20209;-88
2021/05/25 00:18:05;;;;;;;3.13;1.77;;;13.10;99.90;;;;;;4901834;29;20233;-87
2021/05/25 00:20:32;;;;;;;5.40;0.93;;;13.10;99.90;;;;;;4901737;29;20473;-87
2021/05/25 00:22:58;;;;;;;4.23;1.47;;;13.00;99.90;;;;;;4901458;29;20179;-87
2021/05/25 00:25:23;;;;;;;2.90;1.87;;;13.00;99.90;;;;;;4918396;29;20933;-88
2021/05/25 00:27:49;;;;;;;2.73;1.30;;;12.90;99.90;;;;;;4901247;29;20204;-89
2021/05/25 00:30:19;;;;;;;1.27;0.93;;;12.90;99.90;;;;;;4901317;29;20202;-88
2021/05/25 00:32:45;;;;;;;2.47;1.13;;;12.80;99.90;;;;;;4903383;29;20449;-90
2021/05/25 00:35:12;;;;;;;1.83;1.23;;;12.80;99.90;;;;;;4920442;29;20483;-89
2021/05/25 00:37:38;;;;;;;3.07;1.43;;;12.70;99.90;;;;;;4920146;29;20422;-90
2021/05/25 00:40:05;;;;;;;2.80;1.00;;;12.70;99.90;;;;;;4920436;29;20429;-89
2021/05/25 00:42:31;;;;;;;1.10;0.47;;;12.60;99.90;;;;;;4920456;29;20449;-90
2021/05/25 00:44:57;;;;;;;1.50;0.80;;;12.50;99.90;;;;;;4920456;29;20429;-89
2021/05/25 00:47:29;;;;;;;1.17;0.50;;;12.50;99.90;;;;;;4936437;29;20443;-90
2021/05/25 00:49:55;;;;;;;2.30;1.50;;;12.40;99.90;;;;;;4939466;29;20180;-91
2021/05/25 00:52:22;;;;;;;2.77;0.57;;;12.50;99.90;;;;;;4938379;29;20427;-90
2021/05/25 00:54:47;;;;;;;3.17;1.03;;;12.40;99.90;;;;;;4934464;29;20470;-86
2021/05/25 00:57:13;;;;;;;1.50;0.43;;;12.50;99.90;;;;;;4936574;29;20514;-86
2021/05/25 00:59:39;;;;;;;2.47;1.20;;;12.50;99.90;;;;;;4936238;29;20180;-86
2021/05/25 01:02:05;;;;;;;3.73;1.50;;;12.60;99.90;;;;;;4938992;29;20176;-86
2021/05/25 01:04:31;;;;;;;1.17;0.83;;;12.60;99.90;;;;;;4938811;29;20421;-86
2021/05/25 01:06:57;;;;;;;2.33;1.37;;;12.70;99.90;;;;;;4939635;29;20420;-87
2021/05/25 01:09:22;;;;;;;3.20;1.13;;;12.60;99.90;;;;;;4925821;29;20217;-86
2021/05/25 01:11:48;;;;;;;2.30;1.20;;;12.60;99.90;;;;;;4934899;29;20431;-86
2021/05/25 01:14:14;;;;;;;3.17;0.90;;;12.60;99.90;;;;;;4934787;29;20229;-86
2021/05/25 01:16:40;;;;;;;1.37;0.80;;;12.70;99.90;;;;;;4934683;29;20532;-86
2021/05/25 01:19:06;;;;;;;2.53;1.07;;;12.60;99.90;;;;;;4935103;29;20659;-86
2021/05/25 01:21:36;;;;;;;1.67;0.90;;;12.50;99.90;;;;;;4934882;29;20183;-86
2021/05/25 01:24:03;;;;;;;2.30;0.70;;;12.50;99.90;;;;;;4934251;29;20177;-86
2021/05/25 01:26:28;;;;;;;1.70;1.27;;;12.30;99.90;;;;;;4934529;29;20435;-87
2021/05/25 01:28:54;;;;;;;1.70;0.83;;;12.20;99.90;;;;;;4934478;29;20499;-86
2021/05/25 01:31:20;;;;;;;1.50;0.57;;;12.10;99.90;;;;;;4935712;29;20176;-87
2021/05/25 01:33:46;;;;;;;2.37;1.40;;;12.10;99.90;;;;;;4934308;29;20959;-85
2021/05/25 01:36:14;;;;;;;2.10;0.90;;;12.00;99.90;;;;;;4934437;29;20236;-87
2021/05/25 01:38:40;;;;;;;5.33;1.63;;;12.00;99.90;;;;;;4934105;29;20710;-86
2021/05/25 01:41:07;;;;;;;5.03;1.37;;;11.90;99.90;;;;;;4934493;29;20920;-86
2021/05/25 01:43:33;;;;;;;2.10;0.87;;;11.90;99.90;;;;;;4934301;29;20754;-86
2021/05/25 01:45:59;;;;;;;1.10;0.87;;;11.90;99.90;;;;;;4935698;29;20549;-86
2021/05/25 01:48:25;;;;;;;2.63;0.83;;;11.90;99.90;;;;;;4935767;29;20199;-86
2021/05/25 01:50:50;;;;;;;3.07;1.40;;;11.90;99.90;;;;;;4935242;29;20420;-86
2021/05/25 01:53:19;;;;;;;3.23;0.93;;;11.90;99.90;;;;;;4934751;29;20172;-86
2021/05/25 01:55:46;;;;;;;3.23;1.27;;;12.00;99.90;;;;;;4934595;29;20477;-86
2021/05/25 01:58:16;;;;;;;4.90;1.60;;;12.00;99.90;;;;;;4935506;29;20419;-86
2021/05/25 02:01:03;;;;;;;1.90;1.23;;;12.00;99.90;;;;;;4935580;29;20459;-86
2021/05/25 02:03:28;;;;;;;1.37;1.07;;;12.00;99.90;;;;;;4937205;29;20417;-86
2021/05/25 02:05:57;;;;;;;1.80;1.37;;;12.00;99.90;;;;;;4939262;29;20427;-88
2021/05/25 02:08:24;;;;;;;1.93;1.50;;;12.00;99.90;;;;;;4937534;29;20181;-86
2021/05/25 02:11:00;;;;;;;1.73;1.50;;;12.10;99.90;;;;;;4939155;29;20506;-86
2021/05/25 02:13:30;;;;;;;2.10;1.00;;;12.10;99.90;;;;;;4937730;29;20470;-85
2021/05/25 02:16:01;;;;;;;1.43;1.00;;;12.20;99.90;;;;;;4937520;29;20502;-85
2021/05/25 02:18:30;;;;;;;1.83;1.10;;;12.10;99.90;;;;;;4937796;29;20424;-85
2021/05/25 02:20:59;;;;;;;1.70;0.97;;;12.00;99.90;;;;;;4937739;29;20809;-85
2021/05/25 02:23:25;;;;;;;3.13;1.77;;;12.00;99.90;;;;;;4938527;29;20507;-85
2021/05/25 02:25:51;;;;;;;1.60;1.20;;;12.00;99.90;;;;;;4937463;29;20833;-86
2021/05/25 02:28:17;;;;;;;4.20;1.87;;;11.90;99.90;;;;;;4937474;29;20428;-84
2021/05/25 02:30:43;;;;;;;3.63;1.23;;;12.00;99.90;;;;;;4938616;29;20418;-85
2021/05/25 02:33:14;;;;;;;3.30;1.13;;;12.00;99.90;;;;;;4937159;29;20475;-86
2021/05/25 02:35:44;;;;;;;1.80;0.80;;;12.00;99.90;;;;;;4937406;29;20483;-86
2021/05/25 02:38:12;;;;;;;3.00;1.13;;;12.00;99.90;;;;;;4938345;29;20964;-85
2021/05/25 02:40:43;;;;;;;4.37;1.37;;;12.00;99.90;;;;;;4937196;29;20560;-85
2021/05/25 02:43:09;;;;;;;2.50;1.07;;;12.10;99.90;;;;;;4937401;29;20478;-85
2021/05/25 02:45:35;;;;;;;3.37;1.90;;;12.10;99.90;;;;;;4938460;29;20504;-86
2021/05/25 02:48:01;;;;;;;3.70;1.13;;;12.20;99.90;;;;;;4938505;29;20862;-85
2021/05/25 02:50:27;;;;;;;2.80;1.27;;;12.10;99.90;;;;;;4937254;29;20641;-85
2021/05/25 02:52:54;;;;;;;2.80;1.30;;;12.10;99.90;;;;;;4936815;29;20408;-84
2021/05/25 02:55:22;;;;;;;2.47;1.40;;;12.00;99.90;;;;;;4938210;29;20215;-85
2021/05/25 02:57:48;;;;;;;2.93;0.80;;;11.90;99.90;;;;;;4938306;29;20422;-87
2021/05/25 03:00:17;;;;;;;0.87;0.53;;;11.90;99.90;;;;;;4936840;29;20432;-85
2021/05/25 03:02:43;;;;;;;3.43;0.63;;;11.90;99.90;;;;;;4938130;29;20936;-85
2021/05/25 03:05:11;;;;;;;2.67;0.90;;;11.80;99.90;;;;;;4936788;29;20482;-85
2021/05/25 03:07:37;;;;;;;2.50;1.13;;;11.80;99.90;;;;;;4937705;29;20176;-85
2021/05/25 03:10:10;;;;;;;2.20;0.90;;;11.90;99.90;;;;;;4938076;29;20423;-86
2021/05/25 03:12:36;;;;;;;1.97;1.33;;;11.90;99.90;;;;;;4936839;29;20455;-84
2021/05/25 03:15:04;;;;;;;2.63;1.27;;;11.90;99.90;;;;;;4935582;29;20430;-85
2021/05/25 03:17:32;;;;;;;1.30;1.03;;;11.90;99.90;;;;;;4937771;29;20474;-85
2021/05/25 03:19:58;;;;;;;2.83;0.83;;;11.90;99.90;;;;;;4936715;29;20567;-85
2021/05/25 03:22:24;;;;;;;2.33;1.00;;;11.90;99.90;;;;;;4936143;29;20463;-84
2021/05/25 03:24:49;;;;;;;2.03;0.90;;;11.80;99.90;;;;;;4937734;29;20266;-84
2021/05/25 03:27:15;;;;;;;2.90;1.00;;;11.90;99.90;;;;;;4937805;29;20415;-87
2021/05/25 03:29:41;;;;;;;3.60;0.87;;;12.00;99.90;;;;;;4936931;29;20180;-85
2021/05/25 03:32:06;;;;;;;2.30;2.00;;;12.10;99.90;;;;;;4939311;29;20546;-85
2021/05/25 03:34:32;;;;;;;1.57;0.77;;;12.10;99.90;;;;;;4955355;29;20311;-84
2021/05/25 03:36:58;;;;;;;1.57;0.80;;;12.10;99.90;;;;;;4940933;29;20215;-84
2021/05/25 03:39:24;;;;;;;3.13;0.93;;;12.00;99.90;;;;;;4940082;29;20453;-85
2021/05/25 03:41:49;;;;;;;2.63;1.20;;;12.00;99.90;;;;;;4956673;29;20190;-85
2021/05/25 03:44:15;;;;;;;1.00;0.87;;;12.00;99.90;;;;;;4939570;29;20179;-85
2021/05/25 03:46:42;;;;;;;2.13;1.20;;;11.90;99.90;;;;;;4956717;29;20191;-85
2021/05/25 03:49:08;;;;;;;3.70;1.30;;;11.90;99.90;;;;;;4939357;29;20184;-85
2021/05/25 03:51:34;;;;;;;1.80;0.77;;;11.80;99.90;;;;;;4956202;29;20421;-85
2021/05/25 03:54:05;;;;;;;2.10;1.23;;;11.90;99.90;;;;;;4938855;29;20411;-86
2021/05/25 03:56:45;;;;;;;1.53;0.90;;;11.90;99.90;;;;;;4956165;29;20568;-86
2021/05/25 03:59:11;;;;;;;3.10;1.00;;;12.00;99.90;;;;;;4939262;29;20427;-85
2021/05/25 04:01:37;;;;;;;3.20;0.70;;;12.00;99.90;;;;;;4939029;29;20511;-85
2021/05/25 04:04:02;;;;;;;2.40;0.67;;;12.20;99.90;;;;;;4956237;28;20171;-86
2021/05/25 04:06:28;;;;;;;1.83;0.73;;;12.30;99.90;;;;;;4938862;29;20274;-88
2021/05/25 04:08:54;;;;;;;3.77;1.10;;;12.40;99.90;;;;;;4955898;29;20171;-85
2021/05/25 04:11:19;;;;;;;2.03;1.33;;;12.40;99.90;;;;;;4938897;29;20186;-86
2021/05/25 04:13:45;;;;;;;1.33;0.73;;;12.30;99.90;;;;;;4955914;29;20179;-85
2021/05/25 04:16:13;;;;;;;1.67;1.00;;;12.30;99.90;;;;;;4938740;29;20679;-85
2021/05/25 04:18:42;;;;;;;1.93;0.63;;;12.20;99.90;;;;;;4955983;28;20379;-85
2021/05/25 04:21:09;;;;;;;3.10;1.63;;;12.30;99.90;;;;;;4955819;28;20431;-85
2021/05/25 04:23:35;;;;;;;2.57;1.10;;;12.30;99.90;;;;;;4955508;29;20419;-85
2021/05/25 04:26:01;;;;;;;3.60;1.47;;;12.20;99.90;;;;;;4955523;28;20761;-87
2021/05/25 04:28:27;;;;;;;2.10;1.03;;;12.30;99.90;;;;;;4955792;29;20462;-85
2021/05/25 04:30:53;;;;;;;1.77;1.00;;;12.30;99.90;;;;;;4938441;29;20466;-87
2021/05/25 04:33:20;;;;;;;2.70;1.57;;;12.30;99.90;;;;;;4938335;29;20227;-86
2021/05/25 04:35:45;;;;;;;2.40;0.90;;;12.40;99.90;;;;;;4955764;29;20230;-86
2021/05/25 04:38:11;;;;;;;1.83;1.30;;;12.40;99.90;;;;;;4955666;29;20937;-87
2021/05/25 04:40:40;;;;;;;1.30;0.87;;;12.40;99.90;;;;;;4955554;28;20173;-87
2021/05/25 04:43:06;;;;;;;3.43;0.60;;;12.50;99.90;;;;;;4938465;29;20178;-87
2021/05/25 04:45:32;;;;;;;1.00;0.53;;;12.50;99.90;;;;;;4938363;29;20801;-87
2021/05/25 04:47:58;;;;;;;1.17;0.70;;;12.50;99.90;;;;;;4955474;29;20416;-87
2021/05/25 04:50:24;;;;;;;1.00;0.50;;;12.50;99.90;;;;;;4956407;28;20426;-86
2021/05/25 04:52:50;;;;;;;1.37;0.60;;;12.40;99.90;;;;;;4959992;29;20211;-92
2021/05/25 04:55:18;;;;;;;2.40;0.43;;;12.30;99.90;;;;;;4960771;28;20185;-94
2021/05/25 04:57:44;;;;;;;1.33;0.40;;;12.30;99.90;;;;;;4944809;29;20434;-95
2021/05/25 05:00:13;;;;;;;1.30;0.80;;;12.20;99.90;;;;;;4943136;29;20420;-94
2021/05/25 05:02:39;;;;;;;2.63;0.43;;;12.30;99.90;;;;;;4944487;29;20206;-95
2021/05/25 05:05:08;;;;;;;1.20;0.50;;;12.40;99.90;;;;;;4947653;29;20431;-96
2021/05/25 05:07:36;;;;;;;1.50;0.93;;;12.40;99.90;;;;;;4945898;29;20419;-95
2021/05/25 05:10:07;;;;;;;1.00;0.50;;;12.50;99.90;;;;;;4945069;29;21016;-96
2021/05/25 05:12:33;;;;;;;1.53;0.50;;;12.50;99.90;;;;;;4950999;29;20440;-94
2021/05/25 05:14:59;;;;;;;2.17;0.73;;;12.40;99.90;;;;;;4948908;29;20455;-96
2021/05/25 05:17:27;;;;;;;3.03;0.73;;;12.40;99.90;;;;;;4932714;29;20486;-95
2021/05/25 05:19:53;;;;;;;1.37;0.50;;;12.40;99.90;;;;;;4966383;28;20180;-94
2021/05/25 05:22:19;;;;;;;1.87;0.80;;;12.40;99.90;;;;;;4943895;29;20936;-95
2021/05/25 05:24:45;;;;;;;1.90;0.40;;;12.40;99.90;;;;;;4942032;29;20462;-93
2021/05/25 05:27:11;;;;;;;1.23;0.53;;;12.50;99.90;;;;;;4940866;29;20184;-95
2021/05/25 05:29:36;;;;;;;0.80;0.60;;;12.50;99.90;;;;;;4932351;29;20525;-92
2021/05/25 05:32:03;;;;;;;1.47;0.70;;;12.60;99.90;;;;;;4922372;29;20178;-94
2021/05/25 05:34:28;;;;;;;1.57;0.87;;;12.70;99.90;;;;;;4905892;29;20236;-94
2021/05/25 05:36:54;;;;;;;1.93;1.27;;;12.80;99.90;;;;;;4901506;29;20486;-93
2021/05/25 05:39:21;;;;;;;1.60;1.20;;;12.90;99.90;;;;;;4904946;29;20189;-94
2021/05/25 05:41:47;;;;;;;1.60;0.87;;;12.90;99.90;;;;;;4905739;29;20212;-93
2021/05/25 05:44:13;;;;;;;3.70;2.07;;;12.90;99.90;;;;;;4906997;29;20934;-93
2021/05/25 05:46:38;;;;;;;3.53;1.80;;;12.90;99.90;;;;;;4906558;29;20440;-94
2021/05/25 05:49:04;;;;;;;6.37;2.03;;;12.90;99.90;;;;;;4908627;29;20196;-94
2021/05/25 05:51:31;;;;;;;3.40;1.47;;;13.10;99.90;;;;;;4906491;29;20260;-94
2021/05/25 05:53:57;;;;;;;4.70;2.73;;;13.30;99.90;;;;;;4913888;29;20212;-93
2021/05/25 05:56:23;;;;;;;2.17;1.97;;;13.30;99.90;;;;;;4925974;29;20516;-91
2021/05/25 05:58:50;;;;;;;3.00;2.70;;;13.40;99.90;;;;;;4926640;29;20413;-92
2021/05/25 06:01:15;;;;;;;3.80;2.50;;;13.30;99.90;;;;;;4927196;29;20437;-93
2021/05/25 06:03:41;;;;;;;3.50;3.00;;;13.20;99.90;;;;;;4926016;29;20444;-93
2021/05/25 06:06:08;;;;;;;4.13;3.00;;;13.20;99.90;;;;;;4909650;29;20276;-94
2021/05/25 06:08:34;;;;;;;4.37;3.57;;;13.30;99.90;;;;;;4907828;29;20184;-92
2021/05/25 06:10:59;;;;;;;5.10;2.30;;;13.30;99.90;;;;;;4907599;29;20522;-91
2021/05/25 06:13:25;;;;;;;4.43;2.97;;;13.30;99.90;;;;;;4906602;29;20244;-91
2021/05/25 06:15:57;;;;;;;3.70;2.67;;;13.20;99.90;;;;;;4906688;29;20216;-89
2021/05/25 06:18:23;;;;;;;3.50;3.03;;;13.30;99.90;;;;;;4904094;29;20425;-91
2021/05/25 06:20:49;;;;;;;3.70;3.40;;;13.50;99.90;;;;;;4903961;29;20445;-90
2021/05/25 06:23:14;;;;;;;4.47;3.67;;;13.60;96.40;;;;;;4903697;29;20180;-93
2021/05/25 06:25:40;;;;;;;5.87;3.30;;;13.60;84.00;;;;;;4919687;29;20664;-93
2021/05/25 06:28:06;;;;;;;5.27;3.87;;;13.60;92.90;;;;;;4903966;29;20182;-92
2021/05/25 06:30:32;;;;;;;3.60;2.47;;;13.70;94.20;;;;;;4903589;29;20440;-94
2021/05/25 06:32:58;;;;;;;3.20;2.57;;;13.80;56.00;;;;;;4903550;29;20225;-91
2021/05/25 06:35:24;;;;;;;5.23;2.70;;;14.00;91.30;;;;;;4903797;29;20453;-91
2021/05/25 06:37:50;;;;;;;4.47;2.40;;;14.40;78.40;;;;;;4903611;29;20469;-90
2021/05/25 06:40:16;;;;;;;3.90;2.77;;;14.90;42.20;;;;;;4904075;29;20418;-93
2021/05/25 06:42:42;;;;;;;2.27;1.50;;;15.20;1.00;;;;;;4903900;29;20663;-89
2021/05/25 06:45:09;;;;;;;1.67;1.47;;;15.50;1.00;;;;;;4901271;29;20442;-91
2021/05/25 06:47:38;;;;;;;2.60;1.90;;;15.80;1.00;;;;;;4904035;29;20456;-92
2021/05/25 06:50:05;;;;;;;2.13;1.47;;;15.90;1.00;;;;;;4903728;29;20797;-92
2021/05/25 06:52:31;;;;;;;3.20;2.50;;;15.70;1.00;;;;;;4903822;29;20491;-93
2021/05/25 06:54:59;;;;;;;2.67;1.67;;;15.30;1.00;;;;;;4904604;29;20959;-90
2021/05/25 06:57:25;;;;;;;2.10;1.53;;;14.60;1.00;;;;;;4907148;29;20506;-93
2021/05/25 06:59:50;;;;;;;3.67;3.40;;;14.10;12.20;;;;;;4929578;29;20421;-90
2021/05/25 07:02:16;;;;;;;3.47;2.43;;;13.80;34.80;;;;;;4927037;29;20442;-92
2021/05/25 07:04:42;;;;;;;3.27;2.57;;;13.60;47.20;;;;;;4913139;29;20209;-94
2021/05/25 07:07:07;;;;;;;5.00;2.67;;;13.60;58.10;;;;;;4914473;29;20189;-93
2021/05/25 07:09:33;;;;;;;4.00;3.13;;;13.60;77.10;;;;;;4914628;29;20177;-92
2021/05/25 07:12:02;;;;;;;3.30;2.23;;;13.60;73.80;;;;;;4913323;29;20207;-92
2021/05/25 07:14:29;;;;;;;4.10;2.30;;;13.80;59.30;;;;;;4912792;29;20455;-93
2021/05/25 07:16:56;;;;;;;2.23;2.03;;;14.10;36.00;;;;;;4911421;29;20479;-93
2021/05/25 07:19:31;;;;;;;2.83;1.70;;;14.30;19.90;;;;;;4928711;29;20461;-95
2021/05/25 07:21:57;;;;;;;2.37;1.90;;;14.40;10.40;;;;;;4911113;29;20430;-92
2021/05/25 07:24:23;;;;;;;2.57;2.10;;;14.40;7.70;;;;;;4927643;29;20427;-91
2021/05/25 07:26:49;;;;;;;2.13;1.90;;;14.10;1.00;;;;;;4927285;29;20422;-92
2021/05/25 07:29:14;;;;;;;2.80;1.80;;;13.90;4.50;;;;;;4910253;29;20205;-90
2021/05/25 07:31:40;;;;;;;3.10;1.93;;;13.90;20.30;;;;;;4909682;29;20436;-92
2021/05/25 07:34:05;;;;;;;1.83;1.63;;;14.00;15.60;;;;;;4925606;29;20240;-92
2021/05/25 07:36:31;;;;;;;2.60;1.60;;;14.00;9.10;;;;;;4927210;29;20213;-91
2021/05/25 07:38:57;;;;;;;4.53;2.00;;;14.20;14.60;;;;;;4927177;29;20187;-90
2021/05/25 07:41:23;;;;;;;4.63;2.60;;;14.70;14.30;;;;;;4927438;29;20235;-92
2021/05/25 07:43:48;;;;;;;1.60;1.30;;;15.30;1.00;;;;;;4910795;29;20198;-92
2021/05/25 07:46:16;;;;;;;1.97;1.33;;;15.90;1.00;;;;;;4921407;29;20183;-88
2021/05/25 07:48:41;;;;;;;2.70;1.23;;;16.80;1.00;;;;;;4903120;29;20271;-90
2021/05/25 07:51:07;;;;;;;2.03;1.30;;;17.20;1.00;;;;;;4918149;29;20463;-91
2021/05/25 07:53:33;;;;;;;2.13;1.33;;;17.20;1.00;;;;;;4927251;29;20177;-87
2021/05/25 07:55:58;;;;;;;2.87;0.90;;;16.70;1.00;;;;;;4939540;29;20203;-88
2021/05/25 07:58:24;;;;;;;3.17;1.50;;;16.10;1.00;;;;;;4931452;29;20190;-89
2021/05/25 08:00:51;;;;;;;2.10;1.47;;;15.40;1.00;;;;;;4919142;29;20548;-92
2021/05/25 08:03:17;;;;;;;2.87;2.30;;;15.00;1.00;;;;;;4902817;29;20427;-92
2021/05/25 08:05:43;;;;;;;2.80;1.73;;;14.60;1.00;;;;;;4919324;29;20431;-91
2021/05/25 08:08:09;;;;;;;4.03;1.80;;;14.30;1.00;;;;;;4914660;29;20525;-90
2021/05/25 08:10:36;;;;;;;2.70;1.73;;;14.00;1.00;;;;;;4896708;29;20426;-87
2021/05/25 08:13:03;;;;;;;3.17;1.20;;;13.80;4.50;;;;;;4900601;29;20433;-86
2021/05/25 08:15:30;;;;;;;2.90;1.90;;;13.70;7.50;;;;;;4917790;29;20545;-87
2021/05/25 08:20:37;;;;;;;2.97;2.20;;;13.50;22.30;;;;;;4915231;29;20419;-87
2021/05/25 08:23:06;;;;;;;2.63;2.17;;;13.50;25.90;;;;;;4900446;29;20480;-86
2021/05/25 08:25:32;;;;;;;2.80;2.10;;;13.30;31.00;;;;;;4914619;29;20484;-86
2021/05/25 08:28:00;;;;;;;2.93;1.90;;;13.20;45.30;;;;;;4907877;29;20422;-86
2021/05/25 08:30:28;;;;;;;2.60;2.40;;;13.10;60.70;;;;;;4891496;29;20486;-87
2021/05/25 08:32:55;;;;;;;3.60;1.67;;;12.90;93.70;;;;;;4914053;29;20452;-87
2021/05/25 08:35:23;;;;;;;2.63;1.90;;;12.60;99.90;;;;;;4908436;29;20425;-87
2021/05/25 08:37:52;;;;;;;3.27;1.80;;;12.40;99.90;;;;;;4924875;29;20507;-86
2021/05/25 08:40:18;;;;;;;2.77;1.37;;;12.20;99.90;;;;;;4910462;29;20432;-85
2021/05/25 08:42:46;;;;;;;2.10;1.60;;;12.10;99.90;;;;;;4925901;29;20424;-85
2021/05/25 08:45:13;;;;;;;2.50;1.93;;;12.20;99.90;;;;;;4927113;29;20464;-85
2021/05/25 08:47:40;;;;;;;2.50;1.50;;;12.10;99.90;;;;;;4909361;29;20507;-85
2021/05/25 08:50:11;;;;;;;2.30;1.80;;;12.10;99.90;;;;;;4926097;29;20445;-85
2021/05/25 08:52:37;;;;;;;4.77;1.20;;;12.50;99.90;;;;;;4926287;29;20426;-86
2021/05/25 08:55:05;;;;;;;2.57;1.47;;;13.10;99.90;;;;;;4909562;29;20428;-86
2021/05/25 08:57:31;;;;;;;4.20;0.97;;;14.10;99.90;;;;;;4926386;29;20536;-86
2021/05/25 08:59:57;;;;;;;2.90;1.67;;;14.90;54.40;;;;;;4926551;29;20775;-87
2021/05/25 09:02:23;;;;;;;2.37;1.63;;;15.10;18.40;;;;;;4925197;29;20435;-86
2021/05/25 09:05:15;;;;;;;2.37;1.57;;;15.10;17.30;;;;;;4907733;29;20181;-87
2021/05/25 09:07:42;;;;;;;2.10;1.90;;;15.00;15.70;;;;;;4909226;29;20177;-87
2021/05/25 09:10:36;;;;;;;4.93;2.80;;;14.80;7.00;;;;;;4925957;29;20416;-86
2021/05/25 09:13:03;;;;;;;2.33;2.00;;;14.80;18.10;;;;;;4924334;29;20452;-86
2021/05/25 09:15:31;;;;;;;3.40;2.60;;;15.20;8.30;;;;;;4924215;29;20943;-87
2021/05/25 09:18:04;;;;;;;4.27;2.87;;;15.70;12.40;;;;;;4926329;29;20495;-86
2021/05/25 09:20:38;;;;;;;4.10;2.43;;;16.50;1.00;;;;;;4923654;29;20471;-87
2021/05/25 09:23:03;;;;;;;3.80;2.30;;;17.10;1.00;;;;;;4915792;29;20436;-88
2021/05/25 09:25:30;;;;;;;9.10;3.10;;;17.40;1.00;;;;;;4927020;29;20423;-87
2021/05/25 09:28:10;;;;;;;3.23;2.53;;;18.00;1.00;;;;;;4933987;29;20206;-87
2021/05/25 09:30:37;;;;;;;3.63;2.00;;;18.00;1.00;;;;;;4935190;29;20419;-89
2021/05/25 09:33:04;;;;;;;2.70;2.30;;;17.80;1.00;;;;;;4934755;29;20547;-87
2021/05/25 09:35:40;;;;;;;4.73;1.40;;;17.70;1.00;;;;;;4934648;29;20482;-88
2021/05/25 09:38:08;;;;;;;5.00;2.00;;;18.00;1.00;;;;;;4934140;29;20421;-93
2021/05/25 09:40:35;;;;;;;5.67;2.07;;;18.30;1.00;;;;;;4937048;29;20414;-91
2021/05/25 09:43:12;;;;;;;4.13;2.30;;;18.80;1.00;;;;;;4936537;29;20990;-91
2021/05/25 09:45:57;;;;;;;5.37;2.10;;;19.70;99.90;;;;;;4932028;29;20462;-90
2021/05/25 09:48:25;;;;;;;4.63;1.67;;;23.00;1.00;;;;;;4931994;29;20845;-88
2021/05/25 09:50:53;;;;;;;2.13;1.50;;;26.10;1.00;;;;;;4918483;29;20434;-90
2021/05/25 09:53:23;;;;;;;2.60;1.57;;;26.40;99.90;;;;;;4932682;29;20444;-86
2021/05/25 09:55:54;;;;;;;1.67;0.80;;;26.90;99.90;;;;;;4933143;29;20460;-87
2021/05/25 09:58:33;;;;;;;3.33;0.67;;;28.70;99.90;;;;;;4916799;29;20432;-87
2021/05/25 10:01:07;;;;;;;1.77;0.40;;;28.80;99.90;;;;;;4934169;29;20472;-88
2021/05/25 10:03:46;;;;;;;2.30;0.67;;;27.30;99.90;;;;;;4935411;29;21034;-88
2021/05/25 10:06:12;;;;;;;3.13;0.80;;;27.40;99.90;;;;;;4916569;29;20458;-89
2021/05/25 10:08:41;;;;;;;0.77;0.40;;;26.10;99.90;;;;;;4935779;29;20694;-89
2021/05/25 10:11:08;;;;;;;1.30;0.90;;;25.20;99.90;;;;;;4934301;29;20421;-88
2021/05/25 10:13:33;;;;;;;2.87;0.50;;;25.00;99.90;;;;;;4918764;29;20989;-89
2021/05/25 10:16:01;;;;;;;3.00;0.50;;;25.30;99.90;;;;;;4919360;29;20474;-89
2021/05/25 10:18:38;;;;;;;2.33;0.53;;;27.30;99.90;;;;;;4934195;29;20263;-88
2021/05/25 10:21:07;;;;;;;2.57;0.80;;;26.40;99.90;;;;;;4934356;29;20942;-89
2021/05/25 10:23:33;;;;;;;2.93;0.63;;;24.40;99.90;;;;;;4917510;29;20453;-88
2021/05/25 10:26:05;;;;;;;1.70;0.80;;;23.20;1.00;;;;;;4936871;29;20937;-87
2021/05/25 10:28:32;;;;;;;1.63;0.30;;;;;;;;;;4936286;29;20425;-90
2021/05/25 10:30:58;;;;;;;2.17;0.77;;;;;;;;;;4937622;29;20419;-90
2021/05/25 10:33:28;;;;;;;1.07;0.83;;;;;;;;;;4937876;29;20459;-91
2021/05/25 10:36:02;;;;;;;2.30;0.70;;;24.50;99.90;;;;;;4938288;29;20489;-93
2021/05/25 10:38:32;;;;;;;2.50;0.43;;;26.20;99.90;;;;;;4937473;29;20442;-91
2021/05/25 10:41:00;;;;;;;5.30;1.07;;;27.90;1.00;;;;;;4937801;29;20420;-88
2021/05/25 10:43:35;;;;;;;1.73;0.60;;;30.10;99.90;;;;;;4936992;29;20941;-87
2021/05/25 10:46:09;;;;;;;2.17;0.70;;;31.50;65.20;;;;;;4934562;29;20487;-87
2021/05/25 10:49:03;;;;;;;3.40;0.70;;;29.10;6.30;;;;;;4937158;29;20507;-86
2021/05/25 10:51:52;;;;;;;2.20;0.33;;;26.90;99.90;;;;;;4935319;29;20463;-87
2021/05/25 10:54:29;;;;;;;2.17;0.47;;;24.60;99.90;;;;;;4929097;29;21214;-88
2021/05/25 10:56:55;;;;;;;1.43;0.40;;;25.10;97.00;;;;;;4941227;29;20529;-86
2021/05/25 10:59:21;;;;;;;1.77;0.33;;;24.00;99.90;;;;;;4951099;29;20402;-89
2021/05/25 11:01:57;;;;;;;2.50;0.33;;;;;;;;;;4925107;29;20826;-88
2021/05/25 11:04:24;;;;;;;2.97;1.10;;;;;;;;;;4920187;29;20967;-89
2021/05/25 11:06:50;;;;;;;1.57;0.20;;;20.50;99.90;;;;;;4919727;29;20420;-86
2021/05/25 11:09:27;;;;;;;1.70;0.40;;;21.90;1.00;;;;;;4920453;29;20449;-89
2021/05/25 11:12:09;;;;;;;2.10;0.27;;;;;;;;;;4937699;29;20436;-85
2021/05/25 11:14:34;;;;;;;2.63;0.43;;;21.60;41.20;;;;;;4937717;29;20555;-88
2021/05/25 11:17:19;;;;;;;3.37;0.57;;;;;;;;;;4937211;29;20565;-86
2021/05/25 11:19:56;;;;;;;1.53;0.83;;;20.80;1.00;;;;;;4937667;29;20177;-87
2021/05/25 11:22:36;;;;;;;1.80;0.60;;;20.70;1.00;;;;;;4920118;29;20423;-88
2021/05/25 11:25:05;;;;;;;3.83;0.70;;;21.20;1.00;;;;;;4937791;29;20489;-87
2021/05/25 11:27:46;;;;;;;1.57;0.33;;;22.40;1.00;;;;;;4937586;29;20899;-86
2021/05/25 11:30:28;;;;;;;2.90;0.40;;;25.10;99.90;;;;;;4936750;29;20414;-88
2021/05/25 11:32:55;;;;;;;1.63;0.50;;;26.50;99.90;;;;;;4932017;29;20484;-89
2021/05/25 11:35:29;;;;;;;1.47;0.57;;;27.40;99.90;;;;;;4919094;29;20424;-94
2021/05/25 11:37:59;;;;;;;2.30;0.80;;;27.30;45.60;;;;;;4934446;29;20815;-87
2021/05/25 11:40:31;;;;;;;1.87;0.37;;;28.00;1.00;;;;;;4936748;29;20416;-90
2021/05/25 11:42:58;;;;;;;1.87;0.57;;;27.40;1.00;;;;;;4919503;29;20785;-92
2021/05/25 11:45:26;;;;;;;1.47;0.47;;;26.10;99.90;;;;;;4919789;29;20471;-89
2021/05/25 11:47:52;;;;;;;2.70;0.70;;;25.30;99.90;;;;;;4936685;29;20553;-87
2021/05/25 11:50:18;;;;;;;2.40;0.50;;;24.90;99.90;;;;;;4919377;29;20441;-87
2021/05/25 11:52:47;;;;;;;2.57;0.53;;;24.80;99.90;;;;;;4936288;29;20424;-86
2021/05/25 11:55:14;;;;;;;1.93;0.60;;;27.10;99.90;;;;;;4933825;29;20623;-88
2021/05/25 11:57:41;;;;;;;2.70;0.50;;;;;;;;;;4919163;29;20982;-87
2021/05/25 12:00:09;;;;;;;3.17;0.30;;;;;;;;;;4920052;29;20513;-88
2021/05/25 12:02:35;;;;;;;3.43;0.73;;;;;;;;;;4920018;29;20437;-90
2021/05/25 12:05:02;;;;;;;1.77;0.40;;;;;;;;;;4935744;29;20511;-88
2021/05/25 12:07:28;;;;;;;2.53;0.40;;;;;;;;;;4926034;29;20518;-87
2021/05/25 12:09:54;;;;;;;1.63;0.30;;;;;;;;;;4927954;29;20503;-86
2021/05/25 12:12:25;;;;;;;1.70;0.37;;;;;;;;;;4925826;29;20433;-87
2021/05/25 12:14:51;;;;;;;1.83;0.50;;;;;;;;;;4924890;29;20412;-87
2021/05/25 12:17:21;;;;;;;2.30;0.83;;;;;;;;;;4913749;29;20473;-88
2021/05/25 12:19:59;;;;;;;1.47;0.40;;;;;;;;;;4918422;29;20435;-93
2021/05/25 12:22:38;;;;;;;3.30;0.50;;;;;;;;;;4923822;29;20503;-87
2021/05/25 12:25:18;;;;;;;1.33;0.27;;;;;;;;;;4926712;29;20421;-87
2021/05/25 12:27:44;;;;;;;1.50;0.40;;;;;;;;;;4927585;29;20422;-88
2021/05/25 12:30:11;;;;;;;4.17;0.50;;;;;;;;;;4927827;29;20466;-86
2021/05/25 12:32:37;;;;;;;1.30;0.50;;;;;;;;;;4929569;29;20430;-87
2021/05/25 12:35:04;;;;;;;1.03;0.30;;;;;;;;;;4926663;29;20411;-86
2021/05/25 12:37:30;;;;;;;1.40;0.40;;;;;;;;;;4930365;29;20496;-87
2021/05/25 12:40:03;;;;;;;4.63;1.00;;;;;;;;;;4932197;29;20433;-89
2021/05/25 12:42:37;;;;;;;2.83;0.80;;;;;;;;;;4917030;29;20421;-90
2021/05/25 12:45:07;;;;;;;2.80;1.20;;;;;;;;;;4914974;29;20422;-92
2021/05/25 12:47:52;;;;;;;1.97;0.40;;;;;;;;;;4917305;29;20432;-91
2021/05/25 12:50:48;;;;;;;1.23;0.30;;;;;;;;;;4916967;29;20409;-92
2021/05/25 12:53:18;;;;;;;0.90;0.30;;;;;;;;;;4910820;29;20423;-95
2021/05/25 12:55:53;;;;;;;1.37;0.40;;;;;;;;;;4934171;29;20522;-90
2021/05/25 12:58:38;;;;;;;1.07;0.30;;;;;;;;;;4925926;29;20424;-88
2021/05/25 13:01:19;;;;;;;0.77;0.20;;;;;;;;;;4924025;29;20428;-88
2021/05/25 13:03:45;;;;;;;1.43;0.40;;;;;;;;;;4932154;29;20432;-87
2021/05/25 13:06:19;;;;;;;2.70;0.70;;;;;;;;;;4904422;29;20447;-88
2021/05/25 13:08:48;;;;;;;126.33;87.23;;;;;;;;;;4916802;29;20976;-91